James L. Oberstar — WDC6154 — position and weather

sailwx.info

Track history (hours):
 
Tides and Currents Weather Stations Pressure Air Temp Water Temp Dewpoint Dewpoint Depression Visibility Wind Speed Wind Dir Waves Ship Positions

James L. Oberstar

Owner: Destin Trading Corporation, harahan, LA. More information available from US FCC via Universal Licensing System and Coast Guard Vessel Documentation Center.

Last reported at 2015-Apr-21 09:33 UTC. Time now 2015-Apr-21 09:52 UTC.
Position N 29°31' W 094°53'.

Length 26 m; draft 2.8 m.

Type: Towing. MMSI: 367052120.

Date/timePositionNaut miles runAvg speedWind from/ knotsBaromVisibWave heightAir tempDewpointWater temp
2015-Apr-21 09:33N 29°31' W 094°53'7 7.3
2015-Apr-21 08:33N 29°38' W 094°58'6 6.4
2015-Apr-21 07:33N 29°43' W 095°01'4 4.1
2015-Apr-21 06:31N 29°46' W 095°05'1 1.2
2015-Apr-21 05:33N 29°45' W 095°06'0 0.4
2015-Apr-21 04:32N 29°45' W 095°06'0 0.0
2015-Apr-21 03:32N 29°45' W 095°06'0 0.0
2015-Apr-21 02:29N 29°45' W 095°06'0 0.0
2015-Apr-21 01:08N 29°45' W 095°06'0 0.0
2015-Apr-20 23:11N 29°45' W 095°06'0 0.1
2015-Apr-20 22:17N 29°45' W 095°06'0 0.6
2015-Apr-20 21:30N 29°45' W 095°06'0 0.4
2015-Apr-20 20:31N 29°45' W 095°06'0 0.1
2015-Apr-20 19:31N 29°45' W 095°06'0 0.1
2015-Apr-20 18:19N 29°45' W 095°06'0 0.0
2015-Apr-20 16:19N 29°45' W 095°06'0 0.0
2015-Apr-20 15:25N 29°45' W 095°06'0 0.0
2015-Apr-20 14:13N 29°45' W 095°06'0 0.0
2015-Apr-20 13:31N 29°45' W 095°06'0 0.0
2015-Apr-20 12:31N 29°45' W 095°06'0 0.0
2015-Apr-20 11:19N 29°45' W 095°06'0 0.0
2015-Apr-20 10:31N 29°45' W 095°06'0 0.0
2015-Apr-20 09:19N 29°45' W 095°06'0 0.0
2015-Apr-20 08:25N 29°45' W 095°06'0 0.0
2015-Apr-20 07:22N 29°45' W 095°06'0 0.0
2015-Apr-20 06:29N 29°45' W 095°06'1 0.6
2015-Apr-20 05:33N 29°45' W 095°06'2 2.1
2015-Apr-20 04:32N 29°47' W 095°05'0 0.1
2015-Apr-20 03:19N 29°47' W 095°05'0 0.0
2015-Apr-20 02:31N 29°47' W 095°05'0 0.0
2015-Apr-20 01:25N 29°47' W 095°05'0 0.0
2015-Apr-19 23:07N 29°47' W 095°05'0 0.0
2015-Apr-19 22:25N 29°47' W 095°05'0 0.2
2015-Apr-19 21:33N 29°47' W 095°04'0 0.1
2015-Apr-19 20:27N 29°47' W 095°05'0 0.1
2015-Apr-19 19:33N 29°47' W 095°05'0 0.0
2015-Apr-19 18:33N 29°47' W 095°05'0 0.0
2015-Apr-19 17:33N 29°47' W 095°05'0 0.0
2015-Apr-19 16:33N 29°47' W 095°05'0 0.0
2015-Apr-19 15:30N 29°47' W 095°05'0 0.0
2015-Apr-19 14:33N 29°47' W 095°05'0 0.0
2015-Apr-19 13:33N 29°47' W 095°05'0 0.0
2015-Apr-19 12:33N 29°47' W 095°05'0 0.0
2015-Apr-19 11:32N 29°47' W 095°05'0 0.0
2015-Apr-19 10:33N 29°47' W 095°05'0 0.0
2015-Apr-19 09:32N 29°47' W 095°05'0 0.0
2015-Apr-19 08:32N 29°47' W 095°05'0 0.0
2015-Apr-19 07:29N 29°47' W 095°05'0 0.0
2015-Apr-19 06:31N 29°47' W 095°05'0 0.0
2015-Apr-19 05:31N 29°47' W 095°05'0 0.0
2015-Apr-19 04:31N 29°47' W 095°05'0 0.0
2015-Apr-19 03:28N 29°47' W 095°05'0 0.0
2015-Apr-19 02:31N 29°47' W 095°05'0 0.0
2015-Apr-19 01:28N 29°47' W 095°05'0 0.0
2015-Apr-19 00:31N 29°47' W 095°05'0 0.1
2015-Apr-18 23:31N 29°47' W 095°04'0 0.2
2015-Apr-18 22:33N 29°47' W 095°05'0 0.1
2015-Apr-18 21:33N 29°47' W 095°05'0 0.1
2015-Apr-18 20:31N 29°47' W 095°05'0 0.0
2015-Apr-18 18:25N 29°47' W 095°05'0 0.3
2015-Apr-18 17:31N 29°47' W 095°04'2 1.9
2015-Apr-18 16:33N 29°46' W 095°04'7 6.5
2015-Apr-18 15:34N 29°41' W 094°59'8 7.7
2015-Apr-18 14:33N 29°34' W 094°55'  
2015-Apr-14 06:32N 29°50' W 093°59'  
Track history (hours):
 
Tides and Currents Weather Stations Pressure Air Temp Water Temp Dewpoint Dewpoint Depression Visibility Wind Speed Wind Dir Waves Ship Positions

James L. Oberstar

Owner: Destin Trading Corporation, harahan, LA. More information available from US FCC via Universal Licensing System and Coast Guard Vessel Documentation Center.

Last reported at 2015-Apr-21 09:33 UTC. Time now 2015-Apr-21 09:52 UTC.
Position N 29°31' W 094°53'.

Length 26 m; draft 2.8 m.

Type: Towing. MMSI: 367052120.

Date/timePositionNaut miles runAvg speedWind from/ knotsBaromVisibWave heightAir tempDewpointWater temp
2015-Apr-21 09:33N 29°31' W 094°53'7 7.3
2015-Apr-21 08:33N 29°38' W 094°58'6 6.4
2015-Apr-21 07:33N 29°43' W 095°01'4 4.1
2015-Apr-21 06:31N 29°46' W 095°05'1 1.2
2015-Apr-21 05:33N 29°45' W 095°06'0 0.4
2015-Apr-21 04:32N 29°45' W 095°06'0 0.0
2015-Apr-21 03:32N 29°45' W 095°06'0 0.0
2015-Apr-21 02:29N 29°45' W 095°06'0 0.0
2015-Apr-21 01:08N 29°45' W 095°06'0 0.0
2015-Apr-20 23:11N 29°45' W 095°06'0 0.1
2015-Apr-20 22:17N 29°45' W 095°06'0 0.6
2015-Apr-20 21:30N 29°45' W 095°06'0 0.4
2015-Apr-20 20:31N 29°45' W 095°06'0 0.1
2015-Apr-20 19:31N 29°45' W 095°06'0 0.1
2015-Apr-20 18:19N 29°45' W 095°06'0 0.0
2015-Apr-20 16:19N 29°45' W 095°06'0 0.0
2015-Apr-20 15:25N 29°45' W 095°06'0 0.0
2015-Apr-20 14:13N 29°45' W 095°06'0 0.0
2015-Apr-20 13:31N 29°45' W 095°06'0 0.0
2015-Apr-20 12:31N 29°45' W 095°06'0 0.0
2015-Apr-20 11:19N 29°45' W 095°06'0 0.0
2015-Apr-20 10:31N 29°45' W 095°06'0 0.0
2015-Apr-20 09:19N 29°45' W 095°06'0 0.0
2015-Apr-20 08:25N 29°45' W 095°06'0 0.0
2015-Apr-20 07:22N 29°45' W 095°06'0 0.0
2015-Apr-20 06:29N 29°45' W 095°06'1 0.6
2015-Apr-20 05:33N 29°45' W 095°06'2 2.1
2015-Apr-20 04:32N 29°47' W 095°05'0 0.1
2015-Apr-20 03:19N 29°47' W 095°05'0 0.0
2015-Apr-20 02:31N 29°47' W 095°05'0 0.0
2015-Apr-20 01:25N 29°47' W 095°05'0 0.0
2015-Apr-19 23:07N 29°47' W 095°05'0 0.0
2015-Apr-19 22:25N 29°47' W 095°05'0 0.2
2015-Apr-19 21:33N 29°47' W 095°04'0 0.1
2015-Apr-19 20:27N 29°47' W 095°05'0 0.1
2015-Apr-19 19:33N 29°47' W 095°05'0 0.0
2015-Apr-19 18:33N 29°47' W 095°05'0 0.0
2015-Apr-19 17:33N 29°47' W 095°05'0 0.0
2015-Apr-19 16:33N 29°47' W 095°05'0 0.0
2015-Apr-19 15:30N 29°47' W 095°05'0 0.0
2015-Apr-19 14:33N 29°47' W 095°05'0 0.0
2015-Apr-19 13:33N 29°47' W 095°05'0 0.0
2015-Apr-19 12:33N 29°47' W 095°05'0 0.0
2015-Apr-19 11:32N 29°47' W 095°05'0 0.0
2015-Apr-19 10:33N 29°47' W 095°05'0 0.0
2015-Apr-19 09:32N 29°47' W 095°05'0 0.0
2015-Apr-19 08:32N 29°47' W 095°05'0 0.0
2015-Apr-19 07:29N 29°47' W 095°05'0 0.0
2015-Apr-19 06:31N 29°47' W 095°05'0 0.0
2015-Apr-19 05:31N 29°47' W 095°05'0 0.0
2015-Apr-19 04:31N 29°47' W 095°05'0 0.0
2015-Apr-19 03:28N 29°47' W 095°05'0 0.0
2015-Apr-19 02:31N 29°47' W 095°05'0 0.0
2015-Apr-19 01:28N 29°47' W 095°05'0 0.0
2015-Apr-19 00:31N 29°47' W 095°05'0 0.1
2015-Apr-18 23:31N 29°47' W 095°04'0 0.2
2015-Apr-18 22:33N 29°47' W 095°05'0 0.1
2015-Apr-18 21:33N 29°47' W 095°05'0 0.1
2015-Apr-18 20:31N 29°47' W 095°05'0 0.0
2015-Apr-18 18:25N 29°47' W 095°05'0 0.3
2015-Apr-18 17:31N 29°47' W 095°04'2 1.9
2015-Apr-18 16:33N 29°46' W 095°04'7 6.5
2015-Apr-18 15:34N 29°41' W 094°59'8 7.7
2015-Apr-18 14:33N 29°34' W 094°55'  
2015-Apr-14 06:32N 29°50' W 093°59'  

Dump ship's entire track history